sensor_id;sensor_type;location;lat;lon;timestamp;temperature;humidity
62998;DHT22;55949;52.590;7.330;2023-07-20T00:00:07;18.30;99.90
62998;DHT22;55949;52.590;7.330;2023-07-20T00:01:08;18.30;99.90
62998;DHT22;55949;52.590;7.330;2023-07-20T00:02:08;18.30;99.90
62998;DHT22;55949;52.590;7.330;2023-07-20T00:03:11;18.30;99.90
62998;DHT22;55949;52.590;7.330;2023-07-20T00:04:16;18.30;99.90
62998;DHT22;55949;52.590;7.330;2023-07-20T00:05:17;18.20;99.90
62998;DHT22;55949;52.590;7.330;2023-07-20T00:06:25;18.20;99.90
62998;DHT22;55949;52.590;7.330;2023-07-20T00:07:28;18.20;99.90
62998;DHT22;55949;52.590;7.330;2023-07-20T00:08:29;18.20;99.90
62998;DHT22;55949;52.590;7.330;2023-07-20T00:09:29;18.10;99.90
62998;DHT22;55949;52.590;7.330;2023-07-20T00:10:30;18.10;99.90
62998;DHT22;55949;52.590;7.330;2023-07-20T00:11:31;18.10;99.90
62998;DHT22;55949;52.590;7.330;2023-07-20T00:12:31;18.10;99.90
62998;DHT22;55949;52.590;7.330;2023-07-20T00:13:32;18.10;99.90
62998;DHT22;55949;52.590;7.330;2023-07-20T00:14:33;18.10;99.90
62998;DHT22;55949;52.590;7.330;2023-07-20T00:15:33;17.90;99.90
62998;DHT22;55949;52.590;7.330;2023-07-20T00:16:34;17.80;99.90
62998;DHT22;55949;52.590;7.330;2023-07-20T00:17:35;17.80;99.90
62998;DHT22;55949;52.590;7.330;2023-07-20T00:18:37;17.80;99.90
62998;DHT22;55949;52.590;7.330;2023-07-20T00:19:38;17.90;99.90
62998;DHT22;55949;52.590;7.330;2023-07-20T00:20:39;17.90;99.90
62998;DHT22;55949;52.590;7.330;2023-07-20T00:21:40;17.90;99.90
62998;DHT22;55949;52.590;7.330;2023-07-20T00:22:41;18.00;99.90
62998;DHT22;55949;52.590;7.330;2023-07-20T00:23:42;17.90;99.90
62998;DHT22;55949;52.590;7.330;2023-07-20T00:24:42;17.90;99.90
62998;DHT22;55949;52.590;7.330;2023-07-20T00:25:43;17.80;99.90
62998;DHT22;55949;52.590;7.330;2023-07-20T00:26:44;17.70;99.90
62998;DHT22;55949;52.590;7.330;2023-07-20T00:27:44;17.70;99.90
62998;DHT22;55949;52.590;7.330;2023-07-20T00:28:45;17.70;99.90
62998;DHT22;55949;52.590;7.330;2023-07-20T00:29:46;17.80;99.90
62998;DHT22;55949;52.590;7.330;2023-07-20T00:30:46;17.90;99.90
62998;DHT22;55949;52.590;7.330;2023-07-20T00:31:47;18.00;99.90
62998;DHT22;55949;52.590;7.330;2023-07-20T00:32:48;18.00;99.90
62998;DHT22;55949;52.590;7.330;2023-07-20T00:33:48;17.80;99.90
62998;DHT22;55949;52.590;7.330;2023-07-20T00:34:49;17.70;99.90
62998;DHT22;55949;52.590;7.330;2023-07-20T00:35:51;17.70;99.90
62998;DHT22;55949;52.590;7.330;2023-07-20T00:36:51;17.70;99.90
62998;DHT22;55949;52.590;7.330;2023-07-20T00:37:52;17.50;99.90
62998;DHT22;55949;52.590;7.330;2023-07-20T00:38:53;17.30;99.90
62998;DHT22;55949;52.590;7.330;2023-07-20T00:39:54;17.30;99.90
62998;DHT22;55949;52.590;7.330;2023-07-20T00:40:55;17.40;99.90
62998;DHT22;55949;52.590;7.330;2023-07-20T00:41:55;17.40;99.90
62998;DHT22;55949;52.590;7.330;2023-07-20T00:42:56;17.40;99.90
62998;DHT22;55949;52.590;7.330;2023-07-20T00:43:57;17.40;99.90
62998;DHT22;55949;52.590;7.330;2023-07-20T00:44:57;17.30;99.90
62998;DHT22;55949;52.590;7.330;2023-07-20T00:45:59;17.40;99.90
62998;DHT22;55949;52.590;7.330;2023-07-20T00:47:00;17.50;99.90
62998;DHT22;55949;52.590;7.330;2023-07-20T00:48:02;17.50;99.90
62998;DHT22;55949;52.590;7.330;2023-07-20T00:49:04;17.50;99.90
62998;DHT22;55949;52.590;7.330;2023-07-20T00:50:07;17.60;99.90
62998;DHT22;55949;52.590;7.330;2023-07-20T00:51:08;17.60;99.90
62998;DHT22;55949;52.590;7.330;2023-07-20T00:52:10;17.60;99.90
62998;DHT22;55949;52.590;7.330;2023-07-20T00:53:11;17.70;99.90
62998;DHT22;55949;52.590;7.330;2023-07-20T00:54:12;17.50;99.90
62998;DHT22;55949;52.590;7.330;2023-07-20T00:55:13;17.50;99.90
62998;DHT22;55949;52.590;7.330;2023-07-20T00:56:15;17.40;99.90
62998;DHT22;55949;52.590;7.330;2023-07-20T00:57:17;17.40;99.90
62998;DHT22;55949;52.590;7.330;2023-07-20T00:58:19;17.30;99.90
62998;DHT22;55949;52.590;7.330;2023-07-20T00:59:21;17.30;99.90
62998;DHT22;55949;52.590;7.330;2023-07-20T01:00:22;17.10;99.90
62998;DHT22;55949;52.590;7.330;2023-07-20T01:01:22;17.10;99.90
62998;DHT22;55949;52.590;7.330;2023-07-20T01:02:23;17.30;99.90
62998;DHT22;55949;52.590;7.330;2023-07-20T01:03:24;17.30;99.90
62998;DHT22;55949;52.590;7.330;2023-07-20T01:04:25;17.30;99.90
62998;DHT22;55949;52.590;7.330;2023-07-20T01:05:47;17.50;99.90
62998;DHT22;55949;52.590;7.330;2023-07-20T01:06:57;17.60;99.90
62998;DHT22;55949;52.590;7.330;2023-07-20T01:08:07;17.60;99.90
62998;DHT22;55949;52.590;7.330;2023-07-20T01:09:14;17.80;99.90
62998;DHT22;55949;52.590;7.330;2023-07-20T01:10:23;17.80;99.90
62998;DHT22;55949;52.590;7.330;2023-07-20T01:11:42;17.70;99.90
62998;DHT22;55949;52.590;7.330;2023-07-20T01:12:47;17.70;99.90
62998;DHT22;55949;52.590;7.330;2023-07-20T01:13:48;17.80;99.90
62998;DHT22;55949;52.590;7.330;2023-07-20T01:14:49;17.90;99.90
62998;DHT22;55949;52.590;7.330;2023-07-20T01:15:53;17.90;99.90
62998;DHT22;55949;52.590;7.330;2023-07-20T01:16:54;17.90;99.90
62998;DHT22;55949;52.590;7.330;2023-07-20T01:17:58;17.80;99.90
62998;DHT22;55949;52.590;7.330;2023-07-20T01:19:01;17.70;99.90
62998;DHT22;55949;52.590;7.330;2023-07-20T01:20:02;17.60;99.90
62998;DHT22;55949;52.590;7.330;2023-07-20T01:21:08;17.40;99.90
62998;DHT22;55949;52.590;7.330;2023-07-20T01:31:39;17.00;99.90
62998;DHT22;55949;52.590;7.330;2023-07-20T01:32:43;17.00;99.90
62998;DHT22;55949;52.590;7.330;2023-07-20T01:33:46;17.00;99.90
62998;DHT22;55949;52.590;7.330;2023-07-20T01:34:49;16.90;99.90
62998;DHT22;55949;52.590;7.330;2023-07-20T01:35:56;16.90;99.90
62998;DHT22;55949;52.590;7.330;2023-07-20T01:36:59;16.90;99.90
62998;DHT22;55949;52.590;7.330;2023-07-20T01:38:01;16.90;99.90
62998;DHT22;55949;52.590;7.330;2023-07-20T01:39:03;16.80;99.90
62998;DHT22;55949;52.590;7.330;2023-07-20T01:40:06;16.80;99.90
62998;DHT22;55949;52.590;7.330;2023-07-20T01:41:07;16.80;99.90
62998;DHT22;55949;52.590;7.330;2023-07-20T01:42:09;16.80;99.90
62998;DHT22;55949;52.590;7.330;2023-07-20T01:43:09;16.80;99.90
62998;DHT22;55949;52.590;7.330;2023-07-20T01:44:12;16.90;99.90
62998;DHT22;55949;52.590;7.330;2023-07-20T01:45:15;16.90;99.90
62998;DHT22;55949;52.590;7.330;2023-07-20T01:46:16;17.00;99.90
62998;DHT22;55949;52.590;7.330;2023-07-20T01:47:17;16.90;99.90
62998;DHT22;55949;52.590;7.330;2023-07-20T01:48:18;17.00;99.90
62998;DHT22;55949;52.590;7.330;2023-07-20T01:49:18;16.90;99.90
62998;DHT22;55949;52.590;7.330;2023-07-20T01:50:19;16.90;99.90
62998;DHT22;55949;52.590;7.330;2023-07-20T01:51:20;16.90;99.90
62998;DHT22;55949;52.590;7.330;2023-07-20T01:52:20;16.90;99.90
62998;DHT22;55949;52.590;7.330;2023-07-20T01:53:21;17.00;99.90
62998;DHT22;55949;52.590;7.330;2023-07-20T01:54:22;17.20;99.90
62998;DHT22;55949;52.590;7.330;2023-07-20T01:55:22;17.40;99.90
62998;DHT22;55949;52.590;7.330;2023-07-20T01:56:23;17.40;99.90
62998;DHT22;55949;52.590;7.330;2023-07-20T01:57:24;17.30;99.90
62998;DHT22;55949;52.590;7.330;2023-07-20T01:58:24;17.20;99.90
62998;DHT22;55949;52.590;7.330;2023-07-20T01:59:25;17.20;99.90
62998;DHT22;55949;52.590;7.330;2023-07-20T02:00:26;17.10;99.90
62998;DHT22;55949;52.590;7.330;2023-07-20T02:01:27;17.40;99.90
62998;DHT22;55949;52.590;7.330;2023-07-20T02:02:29;17.70;99.90
62998;DHT22;55949;52.590;7.330;2023-07-20T02:03:29;17.80;99.90
62998;DHT22;55949;52.590;7.330;2023-07-20T02:04:30;17.80;99.90
62998;DHT22;55949;52.590;7.330;2023-07-20T02:05:31;17.80;99.90
62998;DHT22;55949;52.590;7.330;2023-07-20T02:06:31;17.80;99.90
62998;DHT22;55949;52.590;7.330;2023-07-20T02:07:33;17.80;99.90
62998;DHT22;55949;52.590;7.330;2023-07-20T02:08:33;17.70;99.90
62998;DHT22;55949;52.590;7.330;2023-07-20T02:09:34;17.70;99.90
62998;DHT22;55949;52.590;7.330;2023-07-20T02:10:35;17.60;99.90
62998;DHT22;55949;52.590;7.330;2023-07-20T02:11:36;17.50;99.90
62998;DHT22;55949;52.590;7.330;2023-07-20T02:12:37;17.40;99.90
62998;DHT22;55949;52.590;7.330;2023-07-20T02:13:37;17.30;99.90
62998;DHT22;55949;52.590;7.330;2023-07-20T02:14:38;17.20;99.90
62998;DHT22;55949;52.590;7.330;2023-07-20T02:15:40;17.20;99.90
62998;DHT22;55949;52.590;7.330;2023-07-20T02:16:41;17.20;99.90
62998;DHT22;55949;52.590;7.330;2023-07-20T02:17:42;17.20;99.90
62998;DHT22;55949;52.590;7.330;2023-07-20T02:18:43;17.40;99.90
62998;DHT22;55949;52.590;7.330;2023-07-20T02:19:44;17.60;99.90
62998;DHT22;55949;52.590;7.330;2023-07-20T02:20:45;17.80;99.90
62998;DHT22;55949;52.590;7.330;2023-07-20T02:21:46;17.80;99.90
62998;DHT22;55949;52.590;7.330;2023-07-20T02:22:47;17.60;99.90
62998;DHT22;55949;52.590;7.330;2023-07-20T02:23:48;17.50;99.90
62998;DHT22;55949;52.590;7.330;2023-07-20T02:24:49;17.40;99.90
62998;DHT22;55949;52.590;7.330;2023-07-20T02:25:50;17.40;99.90
62998;DHT22;55949;52.590;7.330;2023-07-20T02:26:51;17.40;99.90
62998;DHT22;55949;52.590;7.330;2023-07-20T02:27:52;17.30;99.90
62998;DHT22;55949;52.590;7.330;2023-07-20T02:28:53;17.20;99.90
62998;DHT22;55949;52.590;7.330;2023-07-20T02:29:53;17.20;99.90
62998;DHT22;55949;52.590;7.330;2023-07-20T02:30:54;17.20;99.90
62998;DHT22;55949;52.590;7.330;2023-07-20T02:31:55;17.20;99.90
62998;DHT22;55949;52.590;7.330;2023-07-20T02:32:55;17.30;99.90
62998;DHT22;55949;52.590;7.330;2023-07-20T02:33:59;17.50;99.90
62998;DHT22;55949;52.590;7.330;2023-07-20T02:34:59;17.50;99.90
62998;DHT22;55949;52.590;7.330;2023-07-20T02:36:00;17.40;99.90
62998;DHT22;55949;52.590;7.330;2023-07-20T02:37:01;17.50;99.90
62998;DHT22;55949;52.590;7.330;2023-07-20T02:38:02;17.50;99.90
62998;DHT22;55949;52.590;7.330;2023-07-20T02:39:03;17.50;99.90
62998;DHT22;55949;52.590;7.330;2023-07-20T02:40:04;17.70;99.90
62998;DHT22;55949;52.590;7.330;2023-07-20T02:41:05;17.80;99.90
62998;DHT22;55949;52.590;7.330;2023-07-20T02:42:06;17.80;99.90
62998;DHT22;55949;52.590;7.330;2023-07-20T02:43:07;17.90;99.90
62998;DHT22;55949;52.590;7.330;2023-07-20T02:44:07;17.90;99.90
62998;DHT22;55949;52.590;7.330;2023-07-20T02:45:08;17.90;99.90
62998;DHT22;55949;52.590;7.330;2023-07-20T02:46:09;18.00;99.90
62998;DHT22;55949;52.590;7.330;2023-07-20T02:47:10;18.00;99.90
62998;DHT22;55949;52.590;7.330;2023-07-20T02:48:10;18.10;99.90
62998;DHT22;55949;52.590;7.330;2023-07-20T02:49:11;18.10;99.90
62998;DHT22;55949;52.590;7.330;2023-07-20T02:50:12;18.00;99.90
62998;DHT22;55949;52.590;7.330;2023-07-20T02:51:14;18.00;99.90
62998;DHT22;55949;52.590;7.330;2023-07-20T02:52:15;18.00;99.90
62998;DHT22;55949;52.590;7.330;2023-07-20T02:53:16;17.50;99.90
62998;DHT22;55949;52.590;7.330;2023-07-20T02:54:16;17.50;99.90
62998;DHT22;55949;52.590;7.330;2023-07-20T02:55:17;17.60;99.90
62998;DHT22;55949;52.590;7.330;2023-07-20T02:56:18;17.70;99.90
62998;DHT22;55949;52.590;7.330;2023-07-20T02:57:18;17.70;99.90
62998;DHT22;55949;52.590;7.330;2023-07-20T02:58:19;17.70;99.90
62998;DHT22;55949;52.590;7.330;2023-07-20T02:59:20;17.70;99.90
62998;DHT22;55949;52.590;7.330;2023-07-20T03:00:20;17.70;99.90
62998;DHT22;55949;52.590;7.330;2023-07-20T03:01:23;17.60;99.90
62998;DHT22;55949;52.590;7.330;2023-07-20T03:02:24;17.40;99.90
62998;DHT22;55949;52.590;7.330;2023-07-20T03:03:25;17.40;99.90
62998;DHT22;55949;52.590;7.330;2023-07-20T03:04:29;17.40;99.90
62998;DHT22;55949;52.590;7.330;2023-07-20T03:05:30;17.40;99.90
62998;DHT22;55949;52.590;7.330;2023-07-20T03:06:31;17.50;99.90
62998;DHT22;55949;52.590;7.330;2023-07-20T03:07:32;17.40;99.90
62998;DHT22;55949;52.590;7.330;2023-07-20T03:08:32;17.40;99.90
62998;DHT22;55949;52.590;7.330;2023-07-20T03:09:33;17.50;99.90
62998;DHT22;55949;52.590;7.330;2023-07-20T03:10:39;17.50;99.90
62998;DHT22;55949;52.590;7.330;2023-07-20T03:11:40;17.60;99.90
62998;DHT22;55949;52.590;7.330;2023-07-20T03:12:41;17.60;99.90
62998;DHT22;55949;52.590;7.330;2023-07-20T03:13:42;17.60;99.90
62998;DHT22;55949;52.590;7.330;2023-07-20T03:14:43;17.50;99.90
62998;DHT22;55949;52.590;7.330;2023-07-20T03:15:44;17.50;99.90
62998;DHT22;55949;52.590;7.330;2023-07-20T03:16:44;17.50;99.90
62998;DHT22;55949;52.590;7.330;2023-07-20T03:17:45;17.60;99.90
62998;DHT22;55949;52.590;7.330;2023-07-20T03:18:46;17.60;99.90
62998;DHT22;55949;52.590;7.330;2023-07-20T03:19:47;17.50;99.90
62998;DHT22;55949;52.590;7.330;2023-07-20T03:20:48;17.40;99.90
62998;DHT22;55949;52.590;7.330;2023-07-20T03:21:49;17.30;99.90
62998;DHT22;55949;52.590;7.330;2023-07-20T03:22:49;17.30;99.90
62998;DHT22;55949;52.590;7.330;2023-07-20T03:23:50;17.30;99.90
62998;DHT22;55949;52.590;7.330;2023-07-20T03:24:51;17.20;99.90
62998;DHT22;55949;52.590;7.330;2023-07-20T03:25:52;17.20;99.90
62998;DHT22;55949;52.590;7.330;2023-07-20T03:26:55;17.10;99.90
62998;DHT22;55949;52.590;7.330;2023-07-20T03:27:56;17.20;99.90
62998;DHT22;55949;52.590;7.330;2023-07-20T03:28:56;17.20;99.90
62998;DHT22;55949;52.590;7.330;2023-07-20T03:29:57;17.10;99.90
62998;DHT22;55949;52.590;7.330;2023-07-20T03:30:58;17.00;99.90
62998;DHT22;55949;52.590;7.330;2023-07-20T03:31:59;17.10;99.90
62998;DHT22;55949;52.590;7.330;2023-07-20T03:33:00;16.90;99.90
62998;DHT22;55949;52.590;7.330;2023-07-20T03:34:00;16.80;99.90
62998;DHT22;55949;52.590;7.330;2023-07-20T03:35:01;16.80;99.90
62998;DHT22;55949;52.590;7.330;2023-07-20T03:36:02;16.70;99.90
62998;DHT22;55949;52.590;7.330;2023-07-20T03:37:03;16.70;99.90
62998;DHT22;55949;52.590;7.330;2023-07-20T03:38:05;16.70;99.90
62998;DHT22;55949;52.590;7.330;2023-07-20T03:39:08;16.70;99.90
62998;DHT22;55949;52.590;7.330;2023-07-20T03:40:09;16.60;99.90
62998;DHT22;55949;52.590;7.330;2023-07-20T03:41:10;16.50;99.90
62998;DHT22;55949;52.590;7.330;2023-07-20T03:42:12;16.40;99.90
62998;DHT22;55949;52.590;7.330;2023-07-20T03:43:12;16.40;99.90
62998;DHT22;55949;52.590;7.330;2023-07-20T03:44:13;16.30;99.90
62998;DHT22;55949;52.590;7.330;2023-07-20T03:45:14;16.30;99.90
62998;DHT22;55949;52.590;7.330;2023-07-20T03:46:14;16.20;99.90
62998;DHT22;55949;52.590;7.330;2023-07-20T03:47:15;16.20;99.90
62998;DHT22;55949;52.590;7.330;2023-07-20T03:48:20;16.20;99.90
62998;DHT22;55949;52.590;7.330;2023-07-20T03:49:21;16.10;99.90
62998;DHT22;55949;52.590;7.330;2023-07-20T03:50:22;16.00;99.90
62998;DHT22;55949;52.590;7.330;2023-07-20T03:51:23;16.00;99.90
62998;DHT22;55949;52.590;7.330;2023-07-20T03:52:23;16.00;99.90
62998;DHT22;55949;52.590;7.330;2023-07-20T03:53:24;16.00;99.90
62998;DHT22;55949;52.590;7.330;2023-07-20T03:54:25;15.90;99.90
62998;DHT22;55949;52.590;7.330;2023-07-20T03:55:25;15.90;99.90
62998;DHT22;55949;52.590;7.330;2023-07-20T03:56:26;15.90;99.90
62998;DHT22;55949;52.590;7.330;2023-07-20T03:57:27;15.90;99.90
62998;DHT22;55949;52.590;7.330;2023-07-20T03:58:28;15.90;99.90
62998;DHT22;55949;52.590;7.330;2023-07-20T03:59:30;15.80;99.90
62998;DHT22;55949;52.590;7.330;2023-07-20T04:00:30;15.80;99.90
62998;DHT22;55949;52.590;7.330;2023-07-20T04:01:31;15.90;99.90
62998;DHT22;55949;52.590;7.330;2023-07-20T04:02:37;15.80;99.90
62998;DHT22;55949;52.590;7.330;2023-07-20T04:03:37;15.80;99.90
62998;DHT22;55949;52.590;7.330;2023-07-20T04:04:38;15.90;99.90
62998;DHT22;55949;52.590;7.330;2023-07-20T04:05:39;15.90;99.90
62998;DHT22;55949;52.590;7.330;2023-07-20T04:06:39;15.80;99.90
62998;DHT22;55949;52.590;7.330;2023-07-20T04:07:40;15.80;99.90
62998;DHT22;55949;52.590;7.330;2023-07-20T04:08:41;15.80;99.90
62998;DHT22;55949;52.590;7.330;2023-07-20T04:09:42;15.80;99.90
62998;DHT22;55949;52.590;7.330;2023-07-20T04:10:45;15.80;99.90
62998;DHT22;55949;52.590;7.330;2023-07-20T04:11:46;15.90;99.90
62998;DHT22;55949;52.590;7.330;2023-07-20T04:12:46;15.90;99.90
62998;DHT22;55949;52.590;7.330;2023-07-20T04:13:47;15.90;99.90
62998;DHT22;55949;52.590;7.330;2023-07-20T04:14:48;16.00;99.90
62998;DHT22;55949;52.590;7.330;2023-07-20T04:15:49;16.20;99.90
62998;DHT22;55949;52.590;7.330;2023-07-20T04:16:49;16.40;99.90
62998;DHT22;55949;52.590;7.330;2023-07-20T04:17:51;16.50;99.90
62998;DHT22;55949;52.590;7.330;2023-07-20T04:18:55;16.50;99.90
62998;DHT22;55949;52.590;7.330;2023-07-20T04:19:55;16.60;99.90
62998;DHT22;55949;52.590;7.330;2023-07-20T04:20:56;16.60;99.90
62998;DHT22;55949;52.590;7.330;2023-07-20T04:21:57;16.70;99.90
62998;DHT22;55949;52.590;7.330;2023-07-20T04:22:57;16.40;99.90
62998;DHT22;55949;52.590;7.330;2023-07-20T04:23:58;16.40;99.90
62998;DHT22;55949;52.590;7.330;2023-07-20T04:24:59;16.50;99.90
62998;DHT22;55949;52.590;7.330;2023-07-20T04:25:59;16.60;99.90
62998;DHT22;55949;52.590;7.330;2023-07-20T04:27:00;16.60;99.90
62998;DHT22;55949;52.590;7.330;2023-07-20T04:28:01;16.60;99.90
62998;DHT22;55949;52.590;7.330;2023-07-20T04:29:02;16.70;99.90
62998;DHT22;55949;52.590;7.330;2023-07-20T04:30:02;16.60;99.90
62998;DHT22;55949;52.590;7.330;2023-07-20T04:31:11;16.60;99.90
62998;DHT22;55949;52.590;7.330;2023-07-20T04:32:12;16.60;99.90
62998;DHT22;55949;52.590;7.330;2023-07-20T04:33:13;16.60;99.90
62998;DHT22;55949;52.590;7.330;2023-07-20T04:34:14;16.70;99.90
62998;DHT22;55949;52.590;7.330;2023-07-20T04:35:47;16.80;99.90
62998;DHT22;55949;52.590;7.330;2023-07-20T04:36:49;16.80;99.90
62998;DHT22;55949;52.590;7.330;2023-07-20T04:37:49;16.80;99.90
62998;DHT22;55949;52.590;7.330;2023-07-20T04:38:50;16.80;99.90
62998;DHT22;55949;52.590;7.330;2023-07-20T04:39:51;16.90;99.90
62998;DHT22;55949;52.590;7.330;2023-07-20T04:40:51;16.40;99.90
62998;DHT22;55949;52.590;7.330;2023-07-20T04:41:52;16.40;99.90
62998;DHT22;55949;52.590;7.330;2023-07-20T04:42:53;16.50;99.90
62998;DHT22;55949;52.590;7.330;2023-07-20T04:43:53;16.40;99.90
62998;DHT22;55949;52.590;7.330;2023-07-20T04:44:54;16.20;99.90
62998;DHT22;55949;52.590;7.330;2023-07-20T04:45:54;16.10;99.90
62998;DHT22;55949;52.590;7.330;2023-07-20T04:46:55;16.10;99.90
62998;DHT22;55949;52.590;7.330;2023-07-20T04:47:56;16.10;99.90
62998;DHT22;55949;52.590;7.330;2023-07-20T04:48:57;16.00;99.90
62998;DHT22;55949;52.590;7.330;2023-07-20T04:49:58;15.90;99.90
62998;DHT22;55949;52.590;7.330;2023-07-20T04:50:58;16.00;99.90
62998;DHT22;55949;52.590;7.330;2023-07-20T04:51:59;16.00;99.90
62998;DHT22;55949;52.590;7.330;2023-07-20T04:53:00;16.00;99.90
62998;DHT22;55949;52.590;7.330;2023-07-20T04:54:02;16.00;99.90
62998;DHT22;55949;52.590;7.330;2023-07-20T04:55:03;16.10;99.90
62998;DHT22;55949;52.590;7.330;2023-07-20T04:56:05;16.10;99.90
62998;DHT22;55949;52.590;7.330;2023-07-20T04:57:11;16.00;99.90
62998;DHT22;55949;52.590;7.330;2023-07-20T04:58:12;16.00;99.90
62998;DHT22;55949;52.590;7.330;2023-07-20T04:59:14;16.00;99.90
62998;DHT22;55949;52.590;7.330;2023-07-20T05:00:15;16.10;99.90
62998;DHT22;55949;52.590;7.330;2023-07-20T05:01:15;16.10;99.90
62998;DHT22;55949;52.590;7.330;2023-07-20T05:02:16;16.30;99.90
62998;DHT22;55949;52.590;7.330;2023-07-20T05:03:17;16.40;99.90
62998;DHT22;55949;52.590;7.330;2023-07-20T05:04:18;16.50;99.90
62998;DHT22;55949;52.590;7.330;2023-07-20T05:05:18;16.50;99.90
62998;DHT22;55949;52.590;7.330;2023-07-20T05:06:19;16.50;99.90
62998;DHT22;55949;52.590;7.330;2023-07-20T05:07:20;16.60;99.90
62998;DHT22;55949;52.590;7.330;2023-07-20T05:08:21;16.60;99.90
62998;DHT22;55949;52.590;7.330;2023-07-20T05:09:24;16.60;99.90
62998;DHT22;55949;52.590;7.330;2023-07-20T05:10:25;16.50;99.90
62998;DHT22;55949;52.590;7.330;2023-07-20T05:11:26;16.50;99.90
62998;DHT22;55949;52.590;7.330;2023-07-20T05:12:27;16.50;99.90
62998;DHT22;55949;52.590;7.330;2023-07-20T05:13:27;16.50;99.90
62998;DHT22;55949;52.590;7.330;2023-07-20T05:14:28;16.50;99.90
62998;DHT22;55949;52.590;7.330;2023-07-20T05:15:28;16.60;99.90
62998;DHT22;55949;52.590;7.330;2023-07-20T05:16:29;16.60;99.90
62998;DHT22;55949;52.590;7.330;2023-07-20T05:17:30;16.60;99.90
62998;DHT22;55949;52.590;7.330;2023-07-20T05:18:31;16.30;99.90
62998;DHT22;55949;52.590;7.330;2023-07-20T05:19:31;16.00;99.90
62998;DHT22;55949;52.590;7.330;2023-07-20T05:20:32;16.30;99.90
62998;DHT22;55949;52.590;7.330;2023-07-20T05:21:33;15.90;99.90
62998;DHT22;55949;52.590;7.330;2023-07-20T05:22:34;15.90;99.90
62998;DHT22;55949;52.590;7.330;2023-07-20T05:23:35;16.20;99.90
62998;DHT22;55949;52.590;7.330;2023-07-20T05:24:35;16.20;99.90
62998;DHT22;55949;52.590;7.330;2023-07-20T05:25:36;16.30;99.90
62998;DHT22;55949;52.590;7.330;2023-07-20T05:26:37;16.40;99.90
62998;DHT22;55949;52.590;7.330;2023-07-20T05:27:39;16.40;99.90
62998;DHT22;55949;52.590;7.330;2023-07-20T05:28:40;16.20;99.90
62998;DHT22;55949;52.590;7.330;2023-07-20T05:29:46;16.20;99.90
62998;DHT22;55949;52.590;7.330;2023-07-20T05:30:47;16.30;99.90
62998;DHT22;55949;52.590;7.330;2023-07-20T05:31:48;16.20;99.90
62998;DHT22;55949;52.590;7.330;2023-07-20T05:32:48;16.30;99.90
62998;DHT22;55949;52.590;7.330;2023-07-20T05:33:52;16.20;99.90
62998;DHT22;55949;52.590;7.330;2023-07-20T05:34:53;16.20;99.90
62998;DHT22;55949;52.590;7.330;2023-07-20T05:35:54;16.20;99.90
62998;DHT22;55949;52.590;7.330;2023-07-20T05:37:13;16.30;99.90
62998;DHT22;55949;52.590;7.330;2023-07-20T05:38:14;16.30;99.90
62998;DHT22;55949;52.590;7.330;2023-07-20T05:39:16;16.30;99.90
62998;DHT22;55949;52.590;7.330;2023-07-20T05:40:17;16.30;99.90
62998;DHT22;55949;52.590;7.330;2023-07-20T05:41:19;16.40;99.90
62998;DHT22;55949;52.590;7.330;2023-07-20T05:42:20;16.40;99.90
62998;DHT22;55949;52.590;7.330;2023-07-20T05:43:20;16.50;99.90
62998;DHT22;55949;52.590;7.330;2023-07-20T05:44:21;16.50;99.90
62998;DHT22;55949;52.590;7.330;2023-07-20T05:45:22;16.50;99.90
62998;DHT22;55949;52.590;7.330;2023-07-20T05:46:22;16.60;99.90
62998;DHT22;55949;52.590;7.330;2023-07-20T05:47:25;16.60;99.90
62998;DHT22;55949;52.590;7.330;2023-07-20T05:48:25;16.60;99.90
62998;DHT22;55949;52.590;7.330;2023-07-20T05:49:26;16.60;99.90
62998;DHT22;55949;52.590;7.330;2023-07-20T05:50:27;16.50;99.90
62998;DHT22;55949;52.590;7.330;2023-07-20T05:51:28;16.50;99.90
62998;DHT22;55949;52.590;7.330;2023-07-20T05:52:29;16.50;99.90
62998;DHT22;55949;52.590;7.330;2023-07-20T05:53:30;16.50;99.90
62998;DHT22;55949;52.590;7.330;2023-07-20T05:54:30;16.50;99.90
62998;DHT22;55949;52.590;7.330;2023-07-20T05:55:31;16.50;99.90
62998;DHT22;55949;52.590;7.330;2023-07-20T05:56:32;16.50;99.90
62998;DHT22;55949;52.590;7.330;2023-07-20T05:57:33;16.60;99.90
62998;DHT22;55949;52.590;7.330;2023-07-20T05:58:34;16.70;99.90
62998;DHT22;55949;52.590;7.330;2023-07-20T05:59:37;16.70;99.90
62998;DHT22;55949;52.590;7.330;2023-07-20T06:00:38;16.70;99.90
62998;DHT22;55949;52.590;7.330;2023-07-20T06:01:40;16.30;99.90
62998;DHT22;55949;52.590;7.330;2023-07-20T06:02:40;16.40;99.90
62998;DHT22;55949;52.590;7.330;2023-07-20T06:03:41;16.50;99.90
62998;DHT22;55949;52.590;7.330;2023-07-20T06:04:42;16.60;99.90
62998;DHT22;55949;52.590;7.330;2023-07-20T06:05:43;16.60;99.90
62998;DHT22;55949;52.590;7.330;2023-07-20T06:06:44;16.80;99.90
62998;DHT22;55949;52.590;7.330;2023-07-20T06:07:44;16.60;99.90
62998;DHT22;55949;52.590;7.330;2023-07-20T06:08:45;16.60;99.90
62998;DHT22;55949;52.590;7.330;2023-07-20T06:09:46;16.60;99.90
62998;DHT22;55949;52.590;7.330;2023-07-20T06:10:50;16.50;99.90
62998;DHT22;55949;52.590;7.330;2023-07-20T06:11:52;16.80;99.90
62998;DHT22;55949;52.590;7.330;2023-07-20T06:12:53;16.90;99.90
62998;DHT22;55949;52.590;7.330;2023-07-20T06:13:53;16.70;99.90
62998;DHT22;55949;52.590;7.330;2023-07-20T06:14:54;16.50;99.90
62998;DHT22;55949;52.590;7.330;2023-07-20T06:15:55;16.50;99.90
62998;DHT22;55949;52.590;7.330;2023-07-20T06:16:58;16.60;99.90
62998;DHT22;55949;52.590;7.330;2023-07-20T06:18:00;16.70;99.90
62998;DHT22;55949;52.590;7.330;2023-07-20T06:19:01;16.90;99.90
62998;DHT22;55949;52.590;7.330;2023-07-20T06:20:02;16.70;99.90
62998;DHT22;55949;52.590;7.330;2023-07-20T06:21:02;16.80;99.90
62998;DHT22;55949;52.590;7.330;2023-07-20T06:22:03;16.80;99.90
62998;DHT22;55949;52.590;7.330;2023-07-20T06:23:05;16.70;99.90
62998;DHT22;55949;52.590;7.330;2023-07-20T06:24:05;16.80;99.90
62998;DHT22;55949;52.590;7.330;2023-07-20T06:25:06;16.90;99.90
62998;DHT22;55949;52.590;7.330;2023-07-20T06:26:07;16.90;99.90
62998;DHT22;55949;52.590;7.330;2023-07-20T06:27:08;16.90;99.90
62998;DHT22;55949;52.590;7.330;2023-07-20T06:28:09;17.10;99.90
62998;DHT22;55949;52.590;7.330;2023-07-20T06:29:09;17.30;99.90
62998;DHT22;55949;52.590;7.330;2023-07-20T06:30:10;17.30;99.90
62998;DHT22;55949;52.590;7.330;2023-07-20T06:31:12;17.30;99.90
62998;DHT22;55949;52.590;7.330;2023-07-20T06:32:13;17.30;99.90
62998;DHT22;55949;52.590;7.330;2023-07-20T06:33:14;17.40;99.90
62998;DHT22;55949;52.590;7.330;2023-07-20T06:34:15;17.40;99.90
62998;DHT22;55949;52.590;7.330;2023-07-20T06:35:15;17.50;99.90
62998;DHT22;55949;52.590;7.330;2023-07-20T06:36:18;17.50;99.90
62998;DHT22;55949;52.590;7.330;2023-07-20T06:37:18;17.00;99.90